Time,TemperatureF,DewpointF,PressureIn,WindDirection,WindDirectionDegrees,WindSpeedMPH,WindSpeedGustMPH,Humidity,HourlyPrecipIn,Conditions,Clouds,dailyrainin,SoftwareType,DateUTC
2013-12-12 00:02:00,41.9,34.2,30.55,NNE,18,0.0,0.0,74,0.00,CLR,,0.00,WeatherDisplay:10.37,2013-12-12 06:02:00,
2013-12-12 00:07:00,41.9,33.9,30.55,NNE,19,3.5,3.5,73,0.00,CLR,,0.00,WeatherDisplay:10.37,2013-12-12 06:07:00,
2013-12-12 00:12:00,41.9,33.9,30.55,NNE,31,5.8,5.8,73,0.00,CLR,,0.00,WeatherDisplay:10.37,2013-12-12 06:12:00,
2013-12-12 00:17:00,41.9,33.9,30.55,NNE,15,3.0,3.0,73,0.00,CLR,,0.00,WeatherDisplay:10.37,2013-12-12 06:17:00,
2013-12-12 00:22:00,41.8,33.8,30.56,NNW,341,4.6,4.6,73,0.00,CLR,,0.00,WeatherDisplay:10.37,2013-12-12 06:22:00,
2013-12-12 00:27:00,41.6,33.6,30.55,NE,44,3.5,3.5,73,0.00,CLR,,0.00,WeatherDisplay:10.37,2013-12-12 06:27:00,
2013-12-12 00:32:00,41.5,33.5,30.55,NNE,26,6.9,6.9,73,0.00,CLR,,0.00,WeatherDisplay:10.37,2013-12-12 06:32:00,
2013-12-12 00:37:00,41.4,33.7,30.55,NNE,23,4.6,4.6,74,0.00,CLR,,0.00,WeatherDisplay:10.37,2013-12-12 06:37:00,
2013-12-12 00:42:00,41.3,33.6,30.55,NNE,30,1.2,1.2,74,0.00,CLR,,0.00,WeatherDisplay:10.37,2013-12-12 06:42:00,
2013-12-12 00:47:00,41.2,33.2,30.54,North,351,6.9,6.9,73,0.00,CLR,,0.00,WeatherDisplay:10.37,2013-12-12 06:47:00,
2013-12-12 00:52:00,41.2,33.5,30.54,NNE,32,9.2,9.2,74,0.00,CLR,,0.00,WeatherDisplay:10.37,2013-12-12 06:52:00,
2013-12-12 00:57:00,41.1,33.4,30.54,North,360,3.5,3.5,74,0.00,CLR,,0.00,WeatherDisplay:10.37,2013-12-12 06:57:00,
2013-12-12 01:02:00,41.0,33.0,30.54,NNW,340,5.8,5.8,73,0.00,CLR,,0.00,WeatherDisplay:10.37,2013-12-12 07:02:00,
2013-12-12 01:07:00,41.0,33.0,30.54,North,360,4.0,4.0,73,0.00,CLR,,0.00,WeatherDisplay:10.37,2013-12-12 07:07:00,
2013-12-12 01:12:00,40.9,32.9,30.54,NE,38,3.5,3.5,73,0.00,CLR,,0.00,WeatherDisplay:10.37,2013-12-12 07:12:00,
2013-12-12 01:17:00,40.8,32.8,30.54,NNE,24,8.1,8.1,73,0.00,CLR,,0.00,WeatherDisplay:10.37,2013-12-12 07:17:00,
2013-12-12 01:22:00,40.7,32.7,30.54,NNW,337,5.8,5.8,73,0.00,CLR,,0.00,WeatherDisplay:10.37,2013-12-12 07:22:00,
2013-12-12 01:27:00,40.7,32.7,30.54,NNE,24,6.9,6.9,73,0.00,CLR,,0.00,WeatherDisplay:10.37,2013-12-12 07:27:00,
2013-12-12 01:32:00,40.6,32.6,30.55,NW,313,4.6,4.6,73,0.00,CLR,,0.00,WeatherDisplay:10.37,2013-12-12 07:32:00,
2013-12-12 01:37:00,40.5,32.5,30.55,NE,56,4.6,4.6,73,0.00,CLR,,0.00,WeatherDisplay:10.37,2013-12-12 07:37:00,
2013-12-12 01:42:00,40.5,32.5,30.54,NE,55,3.5,3.5,73,0.00,CLR,,0.00,WeatherDisplay:10.37,2013-12-12 07:42:00,
2013-12-12 01:47:00,40.4,32.4,30.55,North,350,5.8,5.8,73,0.00,CLR,,0.00,WeatherDisplay:10.37,2013-12-12 07:47:00,
2013-12-12 01:52:00,40.3,32.7,30.55,NE,49,4.6,4.6,74,0.00,CLR,,0.00,WeatherDisplay:10.37,2013-12-12 07:52:00,
2013-12-12 01:57:00,40.2,32.6,30.54,NNW,342,4.6,4.6,74,0.00,CLR,,0.00,WeatherDisplay:10.37,2013-12-12 07:57:00,
2013-12-12 02:02:00,40.1,32.5,30.54,North,360,3.5,3.5,74,0.00,CLR,,0.00,WeatherDisplay:10.37,2013-12-12 08:02:00,
2013-12-12 02:07:00,40.0,32.4,30.54,NNE,30,3.5,3.5,74,0.00,CLR,,0.00,WeatherDisplay:10.37,2013-12-12 08:07:00,
2013-12-12 02:12:00,40.0,32.0,30.55,NNE,29,3.5,3.5,73,0.00,CLR,,0.00,WeatherDisplay:10.37,2013-12-12 08:12:00,
2013-12-12 02:17:00,39.8,32.2,30.55,NNE,29,4.6,4.6,74,0.00,CLR,,0.00,WeatherDisplay:10.37,2013-12-12 08:17:00,
2013-12-12 02:22:00,39.7,32.1,30.55,NNW,347,3.5,3.5,74,0.00,CLR,,0.00,WeatherDisplay:10.37,2013-12-12 08:22:00,
2013-12-12 02:27:00,39.6,32.0,30.55,East,88,5.8,5.8,74,0.00,CLR,,0.00,WeatherDisplay:10.37,2013-12-12 08:27:00,
2013-12-12 02:32:00,39.5,31.9,30.54,NNE,17,6.0,6.0,74,0.00,CLR,,0.00,WeatherDisplay:10.37,2013-12-12 08:32:00,
2013-12-12 02:37:00,39.4,32.1,30.54,ENE,69,3.5,3.5,75,0.00,CLR,,0.00,WeatherDisplay:10.37,2013-12-12 08:37:00,
2013-12-12 02:42:00,39.3,32.0,30.55,NNE,17,3.5,3.5,75,0.00,CLR,,0.00,WeatherDisplay:10.37,2013-12-12 08:42:00,
2013-12-12 02:47:00,39.2,31.9,30.55,NNE,22,4.6,4.6,75,0.00,CLR,,0.00,WeatherDisplay:10.37,2013-12-12 08:47:00,
2013-12-12 02:52:00,39.2,31.9,30.55,NNE,22,3.5,3.5,75,0.00,CLR,,0.00,WeatherDisplay:10.37,2013-12-12 08:52:00,
2013-12-12 02:57:00,39.1,32.2,30.55,NNE,20,4.0,4.0,76,0.00,CLR,,0.00,WeatherDisplay:10.37,2013-12-12 08:57:00,
2013-12-12 03:02:00,39.1,31.8,30.55,NE,36,4.6,4.6,75,0.00,CLR,,0.00,WeatherDisplay:10.37,2013-12-12 09:02:00,
2013-12-12 03:07:00,39.0,32.1,30.54,North,5,2.3,2.3,76,0.00,CLR,,0.00,WeatherDisplay:10.37,2013-12-12 09:07:00,
2013-12-12 03:12:00,38.9,31.6,30.54,North,360,3.5,3.5,75,0.00,CLR,,0.00,WeatherDisplay:10.37,2013-12-12 09:12:00,
2013-12-12 03:17:00,38.8,31.6,30.54,NNE,30,2.3,2.3,75,0.00,CLR,,0.00,WeatherDisplay:10.37,2013-12-12 09:17:00,
2013-12-12 03:22:00,38.8,31.6,30.55,NNE,18,3.5,3.5,75,0.00,CLR,,0.00,WeatherDisplay:10.37,2013-12-12 09:22:00,
2013-12-12 03:27:00,38.8,31.6,30.54,NNE,22,3.5,3.5,75,0.00,CLR,,0.00,WeatherDisplay:10.37,2013-12-12 09:27:00,
2013-12-12 03:32:00,38.7,31.5,30.55,NE,44,3.5,3.5,75,0.00,CLR,,0.00,WeatherDisplay:10.37,2013-12-12 09:32:00,
2013-12-12 03:37:00,38.6,31.4,30.54,ENE,58,6.9,6.9,75,0.00,CLR,,0.00,WeatherDisplay:10.37,2013-12-12 09:37:00,
2013-12-12 03:42:00,38.6,31.0,30.54,North,355,5.8,5.8,74,0.00,CLR,,0.00,WeatherDisplay:10.37,2013-12-12 09:42:00,
2013-12-12 03:47:00,38.5,30.9,30.54,NW,316,4.0,4.0,74,0.00,CLR,,0.00,WeatherDisplay:10.37,2013-12-12 09:47:00,
2013-12-12 03:52:00,38.5,31.3,30.54,NE,42,5.0,5.0,75,0.00,CLR,,0.00,WeatherDisplay:10.37,2013-12-12 09:52:00,
2013-12-12 03:57:00,38.4,31.2,30.55,NNW,346,5.0,5.0,75,0.00,CLR,,0.00,WeatherDisplay:10.37,2013-12-12 09:57:00,
2013-12-12 04:02:00,38.4,30.8,30.55,NNE,19,10.4,10.4,74,0.00,CLR,,0.00,WeatherDisplay:10.37,2013-12-12 10:02:00,
2013-12-12 04:07:00,38.4,31.2,30.55,NNE,12,4.6,4.6,75,0.00,CLR,,0.00,WeatherDisplay:10.37,2013-12-12 10:07:00,
2013-12-12 04:12:00,38.4,31.2,30.54,NE,43,3.5,3.5,75,0.00,CLR,,0.00,WeatherDisplay:10.37,2013-12-12 10:12:00,
2013-12-12 04:17:00,38.3,31.1,30.54,North,5,6.9,6.9,75,0.00,CLR,,0.00,WeatherDisplay:10.37,2013-12-12 10:17:00,
2013-12-12 04:22:00,38.3,31.1,30.54,North,10,4.6,4.6,75,0.00,CLR,,0.00,WeatherDisplay:10.37,2013-12-12 10:22:00,
2013-12-12 04:27:00,38.2,31.0,30.53,NNE,29,3.5,3.5,75,0.00,CLR,,0.00,WeatherDisplay:10.37,2013-12-12 10:27:00,
2013-12-12 04:32:00,38.1,30.9,30.53,NNE,32,3.5,3.5,75,0.00,CLR,,0.00,WeatherDisplay:10.37,2013-12-12 10:32:00,
2013-12-12 04:37:00,38.1,30.9,30.53,North,351,3.5,3.5,75,0.00,CLR,,0.00,WeatherDisplay:10.37,2013-12-12 10:37:00,
2013-12-12 04:42:00,38.0,30.8,30.53,NNW,343,6.9,6.9,75,0.00,CLR,,0.00,WeatherDisplay:10.37,2013-12-12 10:42:00,
2013-12-12 04:47:00,37.9,30.4,30.53,NNE,20,8.1,8.1,74,0.00,CLR,,0.00,WeatherDisplay:10.37,2013-12-12 10:47:00,
2013-12-12 04:52:00,37.8,30.3,30.53,North,355,6.9,6.9,74,0.00,CLR,,0.00,WeatherDisplay:10.37,2013-12-12 10:52:00,
2013-12-12 04:57:00,37.7,30.5,30.53,NNE,31,3.5,3.5,75,0.00,CLR,,0.00,WeatherDisplay:10.37,2013-12-12 10:57:00,
2013-12-12 05:02:00,37.7,30.5,30.53,NE,47,4.6,4.6,75,0.00,CLR,,0.00,WeatherDisplay:10.37,2013-12-12 11:02:00,
2013-12-12 05:07:00,37.5,30.3,30.53,NNE,30,6.9,6.9,75,0.00,CLR,,0.00,WeatherDisplay:10.37,2013-12-12 11:07:00,
2013-12-12 05:12:00,37.5,30.3,30.53,NNE,23,3.5,3.5,75,0.00,CLR,,0.00,WeatherDisplay:10.37,2013-12-12 11:12:00,
2013-12-12 05:17:00,37.4,30.5,30.54,NE,34,3.5,3.5,76,0.00,CLR,,0.00,WeatherDisplay:10.37,2013-12-12 11:17:00,
2013-12-12 05:22:00,37.3,30.4,30.54,NE,35,5.8,5.8,76,0.00,CLR,,0.00,WeatherDisplay:10.37,2013-12-12 11:22:00,
2013-12-12 05:27:00,37.2,30.3,30.54,NNE,14,3.5,3.5,76,0.00,CLR,,0.00,WeatherDisplay:10.37,2013-12-12 11:27:00,
2013-12-12 05:32:00,37.2,30.7,30.54,ENE,59,3.5,3.5,77,0.00,CLR,,0.00,WeatherDisplay:10.37,2013-12-12 11:32:00,
2013-12-12 05:37:00,37.1,30.2,30.55,NNE,13,4.6,4.6,76,0.00,CLR,,0.00,WeatherDisplay:10.37,2013-12-12 11:37:00,
2013-12-12 05:42:00,37.1,30.6,30.55,NNE,28,2.3,2.3,77,0.00,CLR,,0.00,WeatherDisplay:10.37,2013-12-12 11:42:00,
2013-12-12 05:47:00,37.0,30.1,30.55,NE,34,2.0,2.0,76,0.00,CLR,,0.00,WeatherDisplay:10.37,2013-12-12 11:47:00,
2013-12-12 05:52:00,36.9,30.0,30.55,NE,34,1.2,1.2,76,0.00,CLR,,0.00,WeatherDisplay:10.37,2013-12-12 11:52:00,
2013-12-12 05:57:00,36.8,30.3,30.56,NNE,26,3.5,3.5,77,0.00,CLR,,0.00,WeatherDisplay:10.37,2013-12-12 11:57:00,
2013-12-12 06:02:00,36.8,30.3,30.56,NNE,26,1.2,1.2,77,0.00,CLR,,0.00,WeatherDisplay:10.37,2013-12-12 12:02:00,
2013-12-12 06:07:00,36.7,30.2,30.56,NNW,348,2.3,2.3,77,0.00,CLR,,0.00,WeatherDisplay:10.37,2013-12-12 12:07:00,
2013-12-12 06:12:00,36.6,30.1,30.56,North,9,1.2,1.2,77,0.00,CLR,,0.00,WeatherDisplay:10.37,2013-12-12 12:12:00,
2013-12-12 06:17:00,36.5,30.3,30.56,NE,34,1.2,0.0,78,0.00,CLR,,0.00,WeatherDisplay:10.37,2013-12-12 12:17:00,
2013-12-12 06:22:00,36.4,30.2,30.56,ENE,61,3.5,3.5,78,0.00,CLR,,0.00,WeatherDisplay:10.37,2013-12-12 12:22:00,
2013-12-12 06:27:00,36.4,30.5,30.56,NNW,344,2.3,2.3,79,0.00,CLR,,0.00,WeatherDisplay:10.37,2013-12-12 12:27:00,
2013-12-12 06:32:00,36.4,30.5,30.56,NE,43,2.3,2.3,79,0.00,CLR,,0.00,WeatherDisplay:10.37,2013-12-12 12:32:00,
2013-12-12 06:37:00,36.3,30.4,30.56,NNE,28,3.5,3.5,79,0.00,CLR,,0.00,WeatherDisplay:10.37,2013-12-12 12:37:00,
2013-12-12 06:42:00,36.2,30.3,30.57,NNE,26,2.0,2.0,79,0.00,CLR,,0.00,WeatherDisplay:10.37,2013-12-12 12:42:00,
2013-12-12 06:47:00,36.2,30.3,30.56,NNE,19,1.2,1.2,79,0.00,CLR,,0.00,WeatherDisplay:10.37,2013-12-12 12:47:00,
2013-12-12 06:52:00,36.1,30.2,30.56,NNE,20,4.6,4.6,79,0.00,CLR,,0.00,WeatherDisplay:10.37,2013-12-12 12:52:00,
2013-12-12 06:57:00,36.1,30.2,30.56,NNE,24,2.3,2.3,79,0.00,CLR,,0.00,WeatherDisplay:10.37,2013-12-12 12:57:00,
2013-12-12 07:02:00,36.1,30.5,30.56,NE,47,2.3,2.3,80,0.00,CLR,,0.00,WeatherDisplay:10.37,2013-12-12 13:02:00,
2013-12-12 07:07:00,36.1,30.5,30.57,NNE,32,2.3,0.0,80,0.00,CLR,,0.00,WeatherDisplay:10.37,2013-12-12 13:07:00,
2013-12-12 07:12:00,36.1,30.2,30.57,NNE,32,1.2,0.0,79,0.00,CLR,,0.00,WeatherDisplay:10.37,2013-12-12 13:12:00,
2013-12-12 07:17:00,36.1,30.2,30.57,NNE,15,1.2,1.2,79,0.00,CLR,,0.00,WeatherDisplay:10.37,2013-12-12 13:17:00,
2013-12-12 07:22:00,36.1,30.2,30.56,North,10,3.5,3.5,79,0.00,CLR,,0.00,WeatherDisplay:10.37,2013-12-12 13:22:00,
2013-12-12 07:27:00,36.1,30.2,30.56,NNE,28,1.2,1.2,79,0.00,CLR,,0.00,WeatherDisplay:10.37,2013-12-12 13:27:00,
2013-12-12 07:32:00,36.1,30.2,30.57,NE,41,2.3,2.3,79,0.00,CLR,,0.00,WeatherDisplay:10.37,2013-12-12 13:32:00,
2013-12-12 07:38:00,36.1,30.2,30.56,NE,46,3.5,3.5,79,0.00,CLR,,0.00,WeatherDisplay:10.37,2013-12-12 13:38:00,
2013-12-12 07:43:00,36.1,30.2,30.56,NNE,23,2.3,2.3,79,0.00,CLR,,0.00,WeatherDisplay:10.37,2013-12-12 13:43:00,
2013-12-12 07:48:00,36.2,30.3,30.56,NE,36,5.8,5.8,79,0.00,CLR,,0.00,WeatherDisplay:10.37,2013-12-12 13:48:00,
2013-12-12 07:53:00,36.3,30.4,30.56,NE,43,3.0,3.0,79,0.00,CLR,,0.00,WeatherDisplay:10.37,2013-12-12 13:53:00,
2013-12-12 07:58:00,36.4,30.5,30.57,NNE,30,4.0,4.0,79,0.00,CLR,,0.00,WeatherDisplay:10.37,2013-12-12 13:58:00,
2013-12-12 08:03:00,36.5,30.6,30.57,North,5,5.8,5.8,79,0.00,CLR,,0.00,WeatherDisplay:10.37,2013-12-12 14:03:00,
2013-12-12 08:08:00,36.6,30.7,30.57,NNE,31,5.8,5.8,79,0.00,CLR,,0.00,WeatherDisplay:10.37,2013-12-12 14:08:00,
2013-12-12 08:13:00,36.7,30.8,30.57,NNE,20,3.5,3.5,79,0.00,CLR,,0.00,WeatherDisplay:10.37,2013-12-12 14:13:00,
2013-12-12 08:18:00,36.9,30.7,30.57,NE,35,1.2,1.2,78,0.00,CLR,,0.00,WeatherDisplay:10.37,2013-12-12 14:18:00,
2013-12-12 08:23:00,37.0,30.8,30.57,NNE,19,2.3,2.3,78,0.00,CLR,,0.00,WeatherDisplay:10.37,2013-12-12 14:23:00,
2013-12-12 08:28:00,37.1,30.9,30.57,North,5,5.8,5.8,78,0.00,CLR,,0.00,WeatherDisplay:10.37,2013-12-12 14:28:00,
2013-12-12 08:33:00,37.2,31.0,30.56,NNE,15,4.0,4.0,78,0.00,CLR,,0.00,WeatherDisplay:10.37,2013-12-12 14:33:00,
2013-12-12 08:38:00,37.3,31.1,30.57,ENE,57,3.5,3.5,78,0.00,CLR,,0.00,WeatherDisplay:10.37,2013-12-12 14:38:00,
2013-12-12 08:43:00,37.5,31.3,30.57,NNE,16,3.5,3.5,78,0.00,CLR,,0.00,WeatherDisplay:10.37,2013-12-12 14:43:00,
2013-12-12 08:48:00,37.7,31.5,30.57,NE,36,3.5,3.5,78,0.00,CLR,,0.00,WeatherDisplay:10.37,2013-12-12 14:48:00,
2013-12-12 08:53:00,37.9,31.3,30.57,ENE,57,1.2,1.2,77,0.00,CLR,,0.00,WeatherDisplay:10.37,2013-12-12 14:53:00,
2013-12-12 08:58:00,38.1,31.5,30.58,North,11,4.0,4.0,77,0.00,CLR,,0.00,WeatherDisplay:10.37,2013-12-12 14:58:00,
2013-12-12 09:03:00,38.3,31.7,30.58,NE,34,2.3,2.3,77,0.00,CLR,,0.00,WeatherDisplay:10.37,2013-12-12 15:03:00,
2013-12-12 09:08:00,38.5,31.9,30.58,North,5,3.5,3.5,77,0.00,CLR,,0.00,WeatherDisplay:10.37,2013-12-12 15:08:00,
2013-12-12 09:13:00,38.7,32.1,30.58,NNE,15,3.5,3.5,77,0.00,CLR,,0.00,WeatherDisplay:10.37,2013-12-12 15:13:00,
2013-12-12 09:18:00,39.0,32.4,30.58,NE,39,3.5,3.5,77,0.00,CLR,,0.00,WeatherDisplay:10.37,2013-12-12 15:18:00,
2013-12-12 09:23:00,39.2,32.6,30.58,North,5,3.5,3.5,77,0.00,CLR,,0.00,WeatherDisplay:10.37,2013-12-12 15:23:00,
2013-12-12 09:28:00,39.5,32.6,30.58,NNE,32,3.5,3.5,76,0.00,CLR,,0.00,WeatherDisplay:10.37,2013-12-12 15:28:00,
2013-12-12 09:33:00,39.7,32.8,30.59,NNE,31,3.5,3.5,76,0.00,CLR,,0.00,WeatherDisplay:10.37,2013-12-12 15:33:00,
2013-12-12 09:38:00,39.9,32.9,30.59,NNE,32,2.3,2.3,76,0.00,CLR,,0.00,WeatherDisplay:10.37,2013-12-12 15:38:00,
2013-12-12 09:43:00,40.1,33.1,30.59,NNW,347,2.0,2.0,76,0.00,CLR,,0.00,WeatherDisplay:10.37,2013-12-12 15:43:00,
2013-12-12 09:48:00,40.4,33.1,30.59,NNE,32,3.5,3.5,75,0.00,CLR,,0.00,WeatherDisplay:10.37,2013-12-12 15:48:00,
2013-12-12 09:53:00,40.6,33.0,30.59,NNE,30,1.2,1.2,74,0.00,CLR,,0.00,WeatherDisplay:10.37,2013-12-12 15:53:00,
2013-12-12 09:58:00,40.8,33.5,30.60,NE,34,3.5,3.5,75,0.00,CLR,,0.00,WeatherDisplay:10.37,2013-12-12 15:58:00,
2013-12-12 10:03:00,40.9,33.2,30.60,North,11,3.5,3.5,74,0.00,CLR,,0.00,WeatherDisplay:10.37,2013-12-12 16:03:00,
2013-12-12 10:08:00,41.0,33.3,30.60,NNE,13,4.0,4.0,74,0.00,CLR,,0.00,WeatherDisplay:10.37,2013-12-12 16:08:00,
2013-12-12 10:13:00,41.1,33.4,30.60,East,81,3.5,0.0,74,0.00,CLR,,0.00,WeatherDisplay:10.37,2013-12-12 16:13:00,
2013-12-12 10:18:00,41.2,33.2,30.60,NNW,330,2.3,2.3,73,0.00,CLR,,0.00,WeatherDisplay:10.37,2013-12-12 16:18:00,
2013-12-12 10:23:00,41.2,33.2,30.60,NNE,24,4.0,4.0,73,0.00,CLR,,0.00,WeatherDisplay:10.37,2013-12-12 16:23:00,
2013-12-12 10:28:00,41.4,34.1,30.60,NNE,22,2.3,2.3,75,0.00,CLR,,0.00,WeatherDisplay:10.37,2013-12-12 16:28:00,
2013-12-12 10:33:00,41.6,33.9,30.59,NE,55,3.5,3.5,74,0.00,CLR,,0.00,WeatherDisplay:10.37,2013-12-12 16:33:00,
2013-12-12 10:38:00,42.0,34.3,30.59,North,9,2.3,2.3,74,0.00,CLR,,0.00,WeatherDisplay:10.37,2013-12-12 16:38:00,
2013-12-12 10:43:00,42.6,34.5,30.59,NNE,25,3.5,3.5,73,0.00,CLR,,0.00,WeatherDisplay:10.37,2013-12-12 16:43:00,
2013-12-12 10:48:00,43.3,34.5,30.59,NNW,327,4.6,4.6,71,0.00,CLR,,0.00,WeatherDisplay:10.37,2013-12-12 16:48:00,
2013-12-12 10:53:00,43.8,34.6,30.58,ENE,65,3.5,3.5,70,0.00,CLR,,0.00,WeatherDisplay:10.37,2013-12-12 16:53:00,
2013-12-12 10:58:00,44.4,35.2,30.58,NE,35,2.3,2.3,70,0.00,CLR,,0.00,WeatherDisplay:10.37,2013-12-12 16:58:00,
2013-12-12 11:03:00,45.2,35.6,30.58,NNE,27,3.5,3.5,69,0.00,CLR,,0.00,WeatherDisplay:10.37,2013-12-12 17:03:00,
2013-12-12 11:08:00,46.0,35.7,30.57,ENE,74,2.0,2.0,67,0.00,CLR,,0.00,WeatherDisplay:10.37,2013-12-12 17:08:00,
2013-12-12 11:13:00,46.7,35.9,30.57,SSE,167,3.5,3.5,66,0.00,CLR,,0.00,WeatherDisplay:10.37,2013-12-12 17:13:00,
2013-12-12 11:18:00,47.2,36.0,30.57,NE,44,3.5,3.5,65,0.00,CLR,,0.00,WeatherDisplay:10.37,2013-12-12 17:18:00,
2013-12-12 11:23:00,47.8,35.4,30.57,East,80,1.2,0.0,62,0.00,CLR,,0.00,WeatherDisplay:10.37,2013-12-12 17:23:00,
2013-12-12 11:28:00,48.1,36.5,30.56,NE,49,3.5,3.5,64,0.00,CLR,,0.00,WeatherDisplay:10.37,2013-12-12 17:28:00,
2013-12-12 11:33:00,48.5,36.5,30.56,NNE,24,1.2,1.8,63,0.00,CLR,,0.00,WeatherDisplay:10.37,2013-12-12 17:33:00,
2013-12-12 11:38:00,48.9,36.4,30.55,ESE,103,1.2,0.0,62,0.00,CLR,,0.00,WeatherDisplay:10.37,2013-12-12 17:38:00,
2013-12-12 11:43:00,49.4,36.5,30.55,NNW,340,3.5,3.5,61,0.00,CLR,,0.00,WeatherDisplay:10.37,2013-12-12 17:43:00,
2013-12-12 11:48:00,49.4,36.1,30.55,ENE,58,2.3,2.3,60,0.00,CLR,,0.00,WeatherDisplay:10.37,2013-12-12 17:48:00,
2013-12-12 11:53:00,49.4,36.5,30.55,East,98,1.2,1.2,61,0.00,CLR,,0.00,WeatherDisplay:10.37,2013-12-12 17:53:00,
2013-12-12 11:58:00,49.2,35.9,30.55,NE,53,3.5,3.5,60,0.00,CLR,,0.00,WeatherDisplay:10.37,2013-12-12 17:58:00,
2013-12-12 12:03:00,49.0,36.1,30.55,ENE,63,1.2,1.2,61,0.00,CLR,,0.00,WeatherDisplay:10.37,2013-12-12 18:03:00,
2013-12-12 12:08:00,48.9,36.0,30.54,East,85,1.2,1.2,61,0.00,CLR,,0.00,WeatherDisplay:10.37,2013-12-12 18:08:00,
2013-12-12 12:13:00,48.9,36.4,30.53,East,84,1.0,0.0,62,0.00,CLR,,0.00,WeatherDisplay:10.37,2013-12-12 18:13:00,
2013-12-12 12:18:00,48.8,35.5,30.53,ENE,66,2.3,2.3,60,0.00,CLR,,0.00,WeatherDisplay:10.37,2013-12-12 18:18:00,
2013-12-12 12:23:00,48.8,36.4,30.53,ENE,63,0.0,0.3,62,0.00,CLR,,0.00,WeatherDisplay:10.37,2013-12-12 18:23:00,
2013-12-12 12:28:00,48.9,35.6,30.53,SE,140,2.0,2.0,60,0.00,CLR,,0.00,WeatherDisplay:10.37,2013-12-12 18:28:00,
2013-12-12 12:33:00,49.0,36.5,30.53,East,80,1.2,1.2,62,0.00,CLR,,0.00,WeatherDisplay:10.37,2013-12-12 18:33:00,
2013-12-12 12:38:00,49.2,35.5,30.52,ENE,78,1.2,0.0,59,0.00,CLR,,0.00,WeatherDisplay:10.37,2013-12-12 18:38:00,
2013-12-12 12:43:00,49.2,36.3,30.51,ENE,68,2.3,2.3,61,0.00,CLR,,0.00,WeatherDisplay:10.37,2013-12-12 18:43:00,
2013-12-12 12:48:00,49.2,36.3,30.51,East,93,2.3,0.0,61,0.00,CLR,,0.00,WeatherDisplay:10.37,2013-12-12 18:48:00,
2013-12-12 12:53:00,49.4,36.5,30.50,NE,40,3.5,3.5,61,0.00,CLR,,0.00,WeatherDisplay:10.37,2013-12-12 18:53:00,
2013-12-12 12:58:00,49.5,36.2,30.50,ESE,116,2.3,2.3,60,0.00,CLR,,0.00,WeatherDisplay:10.37,2013-12-12 18:58:00,
2013-12-12 13:03:00,49.8,36.9,30.49,ESE,119,1.2,1.2,61,0.00,CLR,,0.00,WeatherDisplay:10.37,2013-12-12 19:03:00,
2013-12-12 13:08:00,50.3,37.4,30.48,ESE,103,2.3,0.0,61,0.00,CLR,,0.00,WeatherDisplay:10.37,2013-12-12 19:08:00,
2013-12-12 13:13:00,50.6,37.2,30.49,NE,36,0.0,0.8,60,0.00,CLR,,0.00,WeatherDisplay:10.37,2013-12-12 19:13:00,
2013-12-12 13:18:00,50.9,37.1,30.49,NE,35,4.6,4.6,59,0.00,CLR,,0.00,WeatherDisplay:10.37,2013-12-12 19:18:00,
2013-12-12 13:23:00,50.8,37.0,30.48,NE,35,0.0,0.0,59,0.00,CLR,,0.00,WeatherDisplay:10.37,2013-12-12 19:23:00,
2013-12-12 13:28:00,50.9,37.1,30.48,NNE,25,3.0,3.0,59,0.00,CLR,,0.00,WeatherDisplay:10.37,2013-12-12 19:28:00,
2013-12-12 13:33:00,50.8,36.5,30.47,ENE,59,1.2,1.2,58,0.00,CLR,,0.00,WeatherDisplay:10.37,2013-12-12 19:33:00,
2013-12-12 13:38:00,50.9,37.1,30.47,NE,51,2.3,2.3,59,0.00,CLR,,0.00,WeatherDisplay:10.37,2013-12-12 19:38:00,
2013-12-12 13:43:00,51.0,36.7,30.47,ENE,66,3.5,3.5,58,0.00,CLR,,0.00,WeatherDisplay:10.37,2013-12-12 19:43:00,
2013-12-12 13:48:00,51.2,36.9,30.46,ENE,65,3.5,3.5,58,0.00,CLR,,0.00,WeatherDisplay:10.37,2013-12-12 19:48:00,
2013-12-12 13:53:00,51.2,36.9,30.46,NE,51,2.3,2.3,58,0.00,CLR,,0.00,WeatherDisplay:10.37,2013-12-12 19:53:00,
2013-12-12 13:58:00,51.0,36.7,30.45,NE,38,2.3,0.0,58,0.00,CLR,,0.00,WeatherDisplay:10.37,2013-12-12 19:58:00,
2013-12-12 14:03:00,51.0,37.6,30.45,North,9,1.2,1.2,60,0.00,CLR,,0.00,WeatherDisplay:10.37,2013-12-12 20:03:00,
2013-12-12 14:18:00,50.9,37.5,30.44,East,84,3.5,3.5,60,0.00,CLR,,0.00,WeatherDisplay:10.37,2013-12-12 20:18:00,
2013-12-12 14:23:00,51.0,37.2,30.45,NNE,30,3.5,3.5,59,0.00,CLR,,0.00,WeatherDisplay:10.37,2013-12-12 20:23:00,
2013-12-12 14:28:00,51.0,37.2,30.44,NNE,33,2.3,2.3,59,0.00,CLR,,0.00,WeatherDisplay:10.37,2013-12-12 20:28:00,
2013-12-12 14:33:00,51.0,37.6,30.44,ENE,71,1.2,1.2,60,0.00,CLR,,0.00,WeatherDisplay:10.37,2013-12-12 20:33:00,
2013-12-12 14:38:00,51.1,37.7,30.44,NNE,31,2.3,2.3,60,0.00,CLR,,0.00,WeatherDisplay:10.37,2013-12-12 20:38:00,
2013-12-12 14:43:00,51.1,37.3,30.44,ENE,78,2.3,2.3,59,0.00,CLR,,0.00,WeatherDisplay:10.37,2013-12-12 20:43:00,
2013-12-12 14:48:00,51.2,37.4,30.44,NE,38,3.5,3.5,59,0.00,CLR,,0.00,WeatherDisplay:10.37,2013-12-12 20:48:00,
2013-12-12 14:53:00,51.2,37.4,30.44,NE,42,1.2,1.2,59,0.00,CLR,,0.00,WeatherDisplay:10.37,2013-12-12 20:53:00,
2013-12-12 14:58:00,51.3,37.4,30.44,NE,40,2.3,2.3,59,0.00,CLR,,0.00,WeatherDisplay:10.37,2013-12-12 20:58:00,
2013-12-12 15:03:00,51.3,37.9,30.43,NNE,25,3.5,0.0,60,0.00,CLR,,0.00,WeatherDisplay:10.37,2013-12-12 21:03:00,
2013-12-12 15:08:00,51.3,37.9,30.43,North,11,1.2,1.2,60,0.00,CLR,,0.00,WeatherDisplay:10.37,2013-12-12 21:08:00,
2013-12-12 15:13:00,51.4,37.5,30.43,NNE,26,3.5,3.5,59,0.00,CLR,,0.00,WeatherDisplay:10.37,2013-12-12 21:13:00,
2013-12-12 15:18:00,51.5,38.1,30.43,NE,46,3.5,3.5,60,0.00,CLR,,0.00,WeatherDisplay:10.37,2013-12-12 21:18:00,
2013-12-12 15:23:00,51.5,38.1,30.42,ENE,68,0.0,0.0,60,0.00,CLR,,0.00,WeatherDisplay:10.37,2013-12-12 21:23:00,
2013-12-12 15:25:00,51.5,38.5,30.42,NE,55,2.3,2.3,61,0.00,CLR,,0.00,WeatherDisplay:10.37,2013-12-12 21:25:00,
2013-12-12 15:30:00,51.5,38.5,30.42,NE,43,3.5,3.5,61,0.00,CLR,,0.00,WeatherDisplay:10.37,2013-12-12 21:30:00,
2013-12-12 15:35:00,51.5,38.1,30.42,East,81,2.3,0.0,60,0.00,CLR,,0.00,WeatherDisplay:10.37,2013-12-12 21:35:00,
2013-12-12 15:40:00,51.4,37.5,30.42,NE,38,3.5,3.5,59,0.00,CLR,,0.00,WeatherDisplay:10.37,2013-12-12 21:40:00,
2013-12-12 15:45:00,51.4,37.5,30.42,NE,39,1.2,0.0,59,0.00,CLR,,0.00,WeatherDisplay:10.37,2013-12-12 21:45:00,
2013-12-12 15:50:00,51.4,38.0,30.42,NE,51,3.5,3.5,60,0.00,CLR,,0.00,WeatherDisplay:10.37,2013-12-12 21:50:00,
2013-12-12 15:55:00,51.4,37.5,30.42,ENE,74,1.2,0.0,59,0.00,CLR,,0.00,WeatherDisplay:10.37,2013-12-12 21:55:00,
2013-12-12 16:00:00,51.3,37.4,30.42,ENE,74,0.0,0.1,59,0.00,CLR,,0.00,WeatherDisplay:10.37,2013-12-12 22:00:00,
2013-12-12 16:05:00,51.3,37.0,30.42,ENE,62,1.2,1.2,58,0.00,CLR,,0.00,WeatherDisplay:10.37,2013-12-12 22:05:00,
2013-12-12 16:10:00,51.3,37.9,30.42,ENE,62,0.0,0.0,60,0.00,CLR,,0.00,WeatherDisplay:10.37,2013-12-12 22:10:00,
2013-12-12 16:15:00,51.2,37.8,30.42,ENE,75,2.3,2.3,60,0.00,CLR,,0.00,WeatherDisplay:10.37,2013-12-12 22:15:00,
2013-12-12 16:20:00,51.2,37.8,30.41,ENE,69,1.2,1.2,60,0.00,CLR,,0.00,WeatherDisplay:10.37,2013-12-12 22:20:00,
2013-12-12 16:25:00,51.0,37.6,30.42,ENE,74,1.2,0.0,60,0.00,CLR,,0.00,WeatherDisplay:10.37,2013-12-12 22:25:00,
2013-12-12 16:30:00,51.0,37.6,30.42,ENE,75,0.0,0.0,60,0.00,CLR,,0.00,WeatherDisplay:10.37,2013-12-12 22:30:00,
2013-12-12 16:35:00,50.9,37.9,30.42,ENE,75,0.0,0.0,61,0.00,CLR,,0.00,WeatherDisplay:10.37,2013-12-12 22:35:00,
2013-12-12 16:40:00,50.8,37.4,30.41,ENE,75,0.0,0.0,60,0.00,CLR,,0.00,WeatherDisplay:10.37,2013-12-12 22:40:00,
2013-12-12 16:45:00,50.7,37.7,30.41,ENE,75,0.0,0.0,61,0.00,CLR,,0.00,WeatherDisplay:10.37,2013-12-12 22:45:00,
2013-12-12 16:50:00,50.5,37.5,30.42,ENE,75,0.0,0.0,61,0.00,CLR,,0.00,WeatherDisplay:10.37,2013-12-12 22:50:00,
2013-12-12 16:55:00,50.4,38.3,30.42,ENE,75,0.0,0.0,63,0.00,CLR,,0.00,WeatherDisplay:10.37,2013-12-12 22:55:00,
2013-12-12 17:00:00,50.3,37.8,30.42,ENE,75,0.0,0.0,62,0.00,CLR,,0.00,WeatherDisplay:10.37,2013-12-12 23:00:00,
2013-12-12 17:05:00,50.1,38.0,30.42,ENE,75,0.0,0.0,63,0.00,CLR,,0.00,WeatherDisplay:10.37,2013-12-12 23:05:00,
2013-12-12 17:10:00,49.9,38.2,30.42,ENE,75,0.0,0.0,64,0.00,CLR,,0.00,WeatherDisplay:10.37,2013-12-12 23:10:00,
2013-12-12 17:15:00,49.7,38.0,30.41,ENE,75,0.0,0.0,64,0.00,CLR,,0.00,WeatherDisplay:10.37,2013-12-12 23:15:00,
2013-12-12 17:20:00,49.4,38.5,30.41,ENE,75,0.0,0.0,66,0.00,CLR,,0.00,WeatherDisplay:10.37,2013-12-12 23:20:00,
2013-12-12 17:25:00,49.1,37.8,30.42,ENE,75,0.0,0.0,65,0.00,CLR,,0.00,WeatherDisplay:10.37,2013-12-12 23:25:00,
2013-12-12 17:30:00,48.8,37.9,30.41,ENE,75,0.0,0.0,66,0.00,CLR,,0.00,WeatherDisplay:10.37,2013-12-12 23:30:00,
2013-12-12 17:35:00,48.5,37.7,30.41,ENE,75,0.0,0.0,66,0.00,CLR,,0.00,WeatherDisplay:10.37,2013-12-12 23:35:00,
2013-12-12 17:40:00,48.1,37.3,30.41,ENE,75,0.0,0.0,66,0.00,CLR,,0.00,WeatherDisplay:10.37,2013-12-12 23:40:00,
2013-12-12 17:45:00,47.8,37.4,30.41,ENE,75,0.0,0.0,67,0.00,CLR,,0.00,WeatherDisplay:10.37,2013-12-12 23:45:00,
2013-12-12 17:50:00,47.5,37.5,30.41,ENE,75,0.0,0.0,68,0.00,CLR,,0.00,WeatherDisplay:10.37,2013-12-12 23:50:00,
2013-12-12 17:55:00,47.0,37.0,30.41,ENE,75,0.0,0.0,68,0.00,CLR,,0.00,WeatherDisplay:10.37,2013-12-12 23:55:00,
2013-12-12 18:01:00,46.6,37.0,30.41,ENE,75,0.0,0.0,69,0.00,CLR,,0.00,WeatherDisplay:10.37,2013-12-13 00:01:00,
2013-12-12 18:06:00,46.2,36.6,30.40,ENE,75,0.0,0.0,69,0.00,CLR,,0.00,WeatherDisplay:10.37,2013-12-13 00:06:00,
2013-12-12 18:11:00,45.9,36.7,30.41,ENE,75,0.0,0.0,70,0.00,CLR,,0.00,WeatherDisplay:10.37,2013-12-13 00:11:00,
2013-12-12 18:16:00,45.5,36.3,30.41,ENE,75,0.0,0.0,70,0.00,CLR,,0.00,WeatherDisplay:10.37,2013-12-13 00:16:00,
2013-12-12 18:21:00,45.2,36.4,30.41,ENE,75,0.0,0.0,71,0.00,CLR,,0.00,WeatherDisplay:10.37,2013-12-13 00:21:00,
2013-12-12 18:26:00,45.0,36.5,30.41,ENE,75,0.0,0.0,72,0.00,CLR,,0.00,WeatherDisplay:10.37,2013-12-13 00:26:00,
2013-12-12 18:31:00,44.8,36.0,30.41,ENE,75,0.0,0.0,71,0.00,CLR,,0.00,WeatherDisplay:10.37,2013-12-13 00:31:00,
2013-12-12 18:36:00,44.6,36.1,30.41,ENE,75,0.0,0.0,72,0.00,CLR,,0.00,WeatherDisplay:10.37,2013-12-13 00:36:00,
2013-12-12 18:41:00,44.5,36.0,30.41,ENE,75,0.0,0.0,72,0.00,CLR,,0.00,WeatherDisplay:10.37,2013-12-13 00:41:00,
2013-12-12 18:46:00,44.3,36.5,30.41,ENE,75,0.0,0.0,74,0.00,CLR,,0.00,WeatherDisplay:10.37,2013-12-13 00:46:00,
2013-12-12 18:51:00,44.2,36.4,30.41,ENE,75,0.0,0.0,74,0.00,CLR,,0.00,WeatherDisplay:10.37,2013-12-13 00:51:00,
2013-12-12 18:56:00,44.1,36.3,30.41,ENE,75,0.0,0.0,74,0.00,CLR,,0.00,WeatherDisplay:10.37,2013-12-13 00:56:00,
2013-12-12 19:01:00,44.1,36.3,30.42,ENE,75,0.0,0.0,74,0.00,CLR,,0.00,WeatherDisplay:10.37,2013-12-13 01:01:00,
2013-12-12 19:06:00,44.0,36.6,30.41,ENE,75,0.0,0.0,75,0.00,CLR,,0.00,WeatherDisplay:10.37,2013-12-13 01:06:00,
2013-12-12 19:11:00,44.0,36.6,30.41,ENE,75,0.0,0.0,75,0.00,CLR,,0.00,WeatherDisplay:10.37,2013-12-13 01:11:00,
2013-12-12 19:16:00,44.0,36.9,30.41,ENE,75,0.0,0.0,76,0.00,CLR,,0.00,WeatherDisplay:10.37,2013-12-13 01:16:00,
2013-12-12 19:21:00,43.9,36.5,30.41,ENE,75,0.0,0.0,75,0.00,CLR,,0.00,WeatherDisplay:10.37,2013-12-13 01:21:00,
2013-12-12 19:26:00,43.8,36.4,30.41,ENE,75,0.0,0.0,75,0.00,CLR,,0.00,WeatherDisplay:10.37,2013-12-13 01:26:00,
2013-12-12 19:31:00,43.8,36.7,30.41,ENE,75,0.0,0.0,76,0.00,CLR,,0.00,WeatherDisplay:10.37,2013-12-13 01:31:00,
2013-12-12 19:36:00,43.8,36.7,30.41,ENE,75,0.0,0.0,76,0.00,CLR,,0.00,WeatherDisplay:10.37,2013-12-13 01:36:00,
2013-12-12 19:41:00,43.7,36.6,30.41,ENE,75,0.0,0.0,76,0.00,CLR,,0.00,WeatherDisplay:10.37,2013-12-13 01:41:00,
2013-12-12 19:46:00,43.7,36.6,30.41,ENE,75,0.0,0.0,76,0.00,CLR,,0.00,WeatherDisplay:10.37,2013-12-13 01:46:00,
2013-12-12 19:51:00,43.7,37.0,30.41,ENE,75,0.0,0.0,77,0.00,CLR,,0.00,WeatherDisplay:10.37,2013-12-13 01:51:00,
2013-12-12 19:56:00,43.7,37.0,30.41,ENE,75,0.0,0.0,77,0.00,CLR,,0.00,WeatherDisplay:10.37,2013-12-13 01:56:00,
2013-12-12 20:01:00,43.7,37.0,30.41,ENE,75,0.0,0.0,77,0.00,CLR,,0.00,WeatherDisplay:10.37,2013-12-13 02:01:00,
2013-12-12 20:06:00,43.6,36.5,30.41,ENE,75,0.0,0.0,76,0.00,CLR,,0.00,WeatherDisplay:10.37,2013-12-13 02:06:00,
2013-12-12 20:11:00,43.5,36.4,30.41,ENE,75,0.0,0.0,76,0.00,CLR,,0.00,WeatherDisplay:10.37,2013-12-13 02:11:00,
2013-12-12 20:16:00,43.4,36.7,30.41,ENE,75,0.0,0.0,77,0.00,CLR,,0.00,WeatherDisplay:10.37,2013-12-13 02:16:00,
2013-12-12 20:21:00,43.3,36.6,30.41,ENE,75,0.0,0.0,77,0.00,CLR,,0.00,WeatherDisplay:10.37,2013-12-13 02:21:00,
2013-12-12 20:26:00,43.1,36.4,30.42,ENE,75,0.0,0.0,77,0.00,CLR,,0.00,WeatherDisplay:10.37,2013-12-13 02:26:00,
2013-12-12 20:31:00,43.0,36.6,30.41,ENE,75,0.0,0.0,78,0.00,CLR,,0.00,WeatherDisplay:10.37,2013-12-13 02:31:00,
2013-12-12 20:36:00,43.0,36.9,30.41,ENE,75,0.0,0.0,79,0.00,CLR,,0.00,WeatherDisplay:10.37,2013-12-13 02:36:00,
2013-12-12 20:41:00,42.9,36.8,30.41,ENE,75,0.0,0.0,79,0.00,CLR,,0.00,WeatherDisplay:10.37,2013-12-13 02:41:00,
2013-12-12 20:46:00,42.9,36.8,30.40,ENE,75,0.0,0.0,79,0.00,CLR,,0.00,WeatherDisplay:10.37,2013-12-13 02:46:00,
2013-12-12 20:51:00,42.9,36.8,30.40,ENE,75,0.0,0.0,79,0.00,CLR,,0.00,WeatherDisplay:10.37,2013-12-13 02:51:00,
2013-12-12 20:56:00,42.8,36.7,30.40,ENE,75,0.0,0.0,79,0.00,CLR,,0.00,WeatherDisplay:10.37,2013-12-13 02:56:00,
2013-12-12 21:01:00,42.7,37.0,30.40,ENE,75,0.0,0.0,80,0.00,CLR,,0.00,WeatherDisplay:10.37,2013-12-13 03:01:00,
2013-12-12 21:06:00,42.7,36.6,30.40,ENE,75,0.0,0.0,79,0.00,CLR,,0.00,WeatherDisplay:10.37,2013-12-13 03:06:00,
2013-12-12 21:11:00,42.5,36.4,30.40,ENE,75,0.0,0.0,79,0.00,CLR,,0.00,WeatherDisplay:10.37,2013-12-13 03:11:00,
2013-12-12 21:16:00,42.5,36.4,30.40,ENE,75,0.0,0.0,79,0.00,CLR,,0.00,WeatherDisplay:10.37,2013-12-13 03:16:00,
2013-12-12 21:21:00,42.5,36.8,30.39,ENE,75,0.0,0.0,80,0.00,CLR,,0.00,WeatherDisplay:10.37,2013-12-13 03:21:00,
2013-12-12 21:26:00,42.5,36.8,30.39,ENE,75,0.0,0.0,80,0.00,CLR,,0.00,WeatherDisplay:10.37,2013-12-13 03:26:00,
2013-12-12 21:31:00,42.6,36.9,30.39,ENE,75,0.0,0.0,80,0.00,CLR,,0.00,WeatherDisplay:10.37,2013-12-13 03:31:00,
2013-12-12 21:36:00,42.7,37.0,30.39,ENE,75,0.0,0.0,80,0.00,CLR,,0.00,WeatherDisplay:10.37,2013-12-13 03:36:00,
2013-12-12 21:41:00,42.8,37.1,30.39,ENE,75,0.0,0.0,80,0.00,CLR,,0.00,WeatherDisplay:10.37,2013-12-13 03:41:00,
2013-12-12 21:46:00,42.9,36.8,30.39,ENE,75,0.0,0.0,79,0.00,CLR,,0.00,WeatherDisplay:10.37,2013-12-13 03:46:00,
2013-12-12 21:51:00,43.1,37.0,30.39,ENE,75,0.0,0.0,79,0.00,CLR,,0.00,WeatherDisplay:10.37,2013-12-13 03:51:00,
2013-12-12 21:56:00,43.1,37.0,30.39,ENE,75,0.0,0.0,79,0.00,CLR,,0.00,WeatherDisplay:10.37,2013-12-13 03:56:00,
2013-12-12 22:01:00,43.3,37.2,30.39,ENE,75,0.0,0.0,79,0.00,CLR,,0.00,WeatherDisplay:10.37,2013-12-13 04:01:00,
2013-12-12 22:06:00,43.3,37.2,30.39,ENE,75,0.0,0.0,79,0.00,CLR,,0.00,WeatherDisplay:10.37,2013-12-13 04:06:00,
2013-12-12 22:11:00,43.4,37.3,30.39,ENE,75,0.0,0.0,79,0.00,CLR,,0.00,WeatherDisplay:10.37,2013-12-13 04:11:00,
2013-12-12 22:16:00,43.5,37.4,30.39,ENE,75,0.0,0.0,79,0.00,CLR,,0.00,WeatherDisplay:10.37,2013-12-13 04:16:00,
2013-12-12 22:21:00,43.5,37.4,30.39,ENE,75,0.0,0.0,79,0.00,CLR,,0.00,WeatherDisplay:10.37,2013-12-13 04:21:00,
2013-12-12 22:26:00,43.6,37.5,30.38,ENE,75,0.0,0.0,79,0.00,CLR,,0.00,WeatherDisplay:10.37,2013-12-13 04:26:00,
2013-12-12 22:31:00,43.7,37.3,30.38,ENE,75,0.0,0.0,78,0.00,CLR,,0.00,WeatherDisplay:10.37,2013-12-13 04:31:00,
2013-12-12 22:36:00,43.8,37.4,30.38,ENE,75,0.0,0.0,78,0.00,CLR,,0.00,WeatherDisplay:10.37,2013-12-13 04:36:00,
2013-12-12 22:41:00,43.8,37.4,30.38,ENE,75,0.0,0.0,78,0.00,CLR,,0.00,WeatherDisplay:10.37,2013-12-13 04:41:00,
2013-12-12 22:46:00,43.9,37.5,30.38,ENE,75,1.2,0.0,78,0.00,CLR,,0.00,WeatherDisplay:10.37,2013-12-13 04:46:00,
2013-12-12 22:51:00,43.9,37.2,30.38,ENE,76,0.0,0.0,77,0.00,CLR,,0.00,WeatherDisplay:10.37,2013-12-13 04:51:00,
2013-12-12 22:56:00,44.0,37.3,30.37,ENE,76,0.0,0.0,77,0.00,CLR,,0.00,WeatherDisplay:10.37,2013-12-13 04:56:00,
2013-12-12 23:01:00,44.0,37.3,30.37,ENE,76,0.0,0.0,77,0.00,CLR,,0.00,WeatherDisplay:10.37,2013-12-13 05:01:00,
2013-12-12 23:06:00,44.1,37.3,30.36,ENE,76,0.0,0.0,77,0.00,CLR,,0.00,WeatherDisplay:10.37,2013-12-13 05:06:00,
2013-12-12 23:11:00,44.1,37.3,30.36,ENE,76,0.0,0.0,77,0.00,CLR,,0.00,WeatherDisplay:10.37,2013-12-13 05:11:00,
2013-12-12 23:16:00,44.1,37.3,30.36,ENE,76,0.0,0.0,77,0.00,CLR,,0.00,WeatherDisplay:10.37,2013-12-13 05:16:00,
2013-12-12 23:21:00,44.1,37.3,30.36,ENE,76,0.0,0.0,77,0.00,CLR,,0.00,WeatherDisplay:10.37,2013-12-13 05:21:00,
2013-12-12 23:26:00,44.1,37.3,30.35,ENE,76,0.0,0.0,77,0.00,CLR,,0.00,WeatherDisplay:10.37,2013-12-13 05:26:00,
2013-12-12 23:31:00,44.0,37.3,30.35,ENE,76,0.0,0.0,77,0.00,CLR,,0.00,WeatherDisplay:10.37,2013-12-13 05:31:00,
2013-12-12 23:36:00,44.0,37.3,30.34,ENE,76,0.0,0.0,77,0.00,CLR,,0.00,WeatherDisplay:10.37,2013-12-13 05:36:00,
2013-12-12 23:41:00,44.0,36.9,30.33,ENE,76,1.2,0.0,76,0.00,CLR,,0.00,WeatherDisplay:10.37,2013-12-13 05:41:00,
2013-12-12 23:46:00,44.0,36.9,30.33,ENE,77,2.3,2.3,76,0.00,CLR,,0.00,WeatherDisplay:10.37,2013-12-13 05:46:00,
2013-12-12 23:51:00,44.0,36.9,30.33,ENE,77,0.0,0.0,76,0.00,CLR,,0.00,WeatherDisplay:10.37,2013-12-13 05:51:00,
2013-12-12 23:56:00,44.0,36.9,30.33,East,84,0.0,0.0,76,0.00,CLR,,0.00,WeatherDisplay:10.37,2013-12-13 05:56:00,